createdAt,value
2023-02-19T00:01:44.433Z,1.65
2023-02-19T00:04:16.483Z,1.95
2023-02-19T00:06:44.230Z,1.70
2023-02-19T00:09:12.959Z,1.52
2023-02-19T00:11:39.858Z,1.67
2023-02-19T00:14:06.767Z,1.77
2023-02-19T00:16:39.297Z,1.55
2023-02-19T00:19:08.659Z,1.75
2023-02-19T00:21:35.032Z,1.50
2023-02-19T00:24:03.680Z,1.60
2023-02-19T00:26:31.639Z,1.58
2023-02-19T00:28:58.622Z,1.40
2023-02-19T00:31:33.839Z,1.75
2023-02-19T00:34:03.163Z,1.30
2023-02-19T00:36:30.682Z,1.77
2023-02-19T00:38:57.330Z,1.50
2023-02-19T00:41:24.327Z,1.48
2023-02-19T00:43:57.586Z,1.90
2023-02-19T00:46:26.802Z,1.70
2023-02-19T00:48:53.404Z,1.77
2023-02-19T00:51:21.868Z,1.70
2023-02-19T00:53:48.417Z,1.60
2023-02-19T00:56:16.017Z,1.80
2023-02-19T00:58:42.705Z,1.80
2023-02-19T01:01:09.472Z,1.80
2023-02-19T01:03:36.877Z,1.58
2023-02-19T01:06:04.700Z,1.77
2023-02-19T01:08:31.456Z,1.52
2023-02-19T01:10:58.555Z,1.60
2023-02-19T01:13:25.058Z,1.60
2023-02-19T01:15:51.457Z,1.40
2023-02-19T01:18:17.830Z,1.80
2023-02-19T01:20:44.947Z,1.50
2023-02-19T01:23:12.729Z,1.33
2023-02-19T01:25:40.059Z,1.60
2023-02-19T01:28:06.639Z,1.55
2023-02-19T01:30:37.311Z,1.25
2023-02-19T01:33:08.053Z,1.38
2023-02-19T01:35:38.113Z,1.70
2023-02-19T01:38:04.679Z,1.50
2023-02-19T01:40:31.046Z,1.83
2023-02-19T01:42:57.401Z,1.60
2023-02-19T01:45:25.659Z,1.85
2023-02-19T01:48:04.405Z,1.77
2023-02-19T01:50:35.327Z,1.80
2023-02-19T01:53:05.347Z,1.60
2023-02-19T01:55:32.932Z,1.80
2023-02-19T01:58:01.693Z,1.98
2023-02-19T02:00:28.368Z,2.00
2023-02-19T02:02:57.885Z,2.03
2023-02-19T02:05:41.499Z,1.80
2023-02-19T02:08:27.154Z,1.70
2023-02-19T02:10:54.904Z,1.70
2023-02-19T02:13:21.598Z,1.50
2023-02-19T02:15:55.065Z,1.70
2023-02-19T02:18:52.712Z,1.30
2023-02-19T02:21:28.098Z,1.30
2023-02-19T02:24:24.195Z,1.50
2023-02-19T02:27:15.207Z,1.30
2023-02-19T02:30:17.525Z,1.30
2023-02-19T02:32:54.348Z,1.10
2023-02-19T02:35:25.602Z,1.17
2023-02-19T02:37:56.342Z,1.10
2023-02-19T02:40:23.403Z,1.23
2023-02-19T02:42:49.756Z,1.00
2023-02-19T02:45:37.995Z,1.20
2023-02-19T02:48:10.476Z,0.95
2023-02-19T02:50:42.969Z,1.20
2023-02-19T02:53:36.193Z,1.00
2023-02-19T02:56:03.859Z,0.85
2023-02-19T02:58:33.522Z,1.00
2023-02-19T03:03:53.497Z,0.90
2023-02-19T03:06:23.490Z,0.70
2023-02-19T03:09:08.538Z,0.90
2023-02-19T03:11:57.190Z,0.75
2023-02-19T03:14:50.604Z,0.80
2023-02-19T03:17:57.970Z,0.93
2023-02-19T03:20:25.015Z,0.80
2023-02-19T03:22:52.796Z,0.77
2023-02-19T03:25:42.409Z,0.73
2023-02-19T03:28:12.303Z,0.60
2023-02-19T03:30:45.190Z,0.82
2023-02-19T03:33:15.825Z,0.70
2023-02-19T03:35:47.362Z,0.70
2023-02-19T03:38:27.745Z,0.73
2023-02-19T03:41:10.533Z,0.73
2023-02-19T03:43:45.258Z,0.85
2023-02-19T03:46:23.376Z,0.75
2023-02-19T03:49:03.706Z,0.80
2023-02-19T03:51:39.110Z,0.40
2023-02-19T03:54:32.668Z,0.50
2023-02-19T03:57:18.633Z,0.45
2023-02-19T04:00:05.555Z,0.30
2023-02-19T04:02:41.996Z,0.30
2023-02-19T04:05:18.547Z,0.50
2023-02-19T04:07:48.824Z,0.20
2023-02-19T04:10:17.761Z,0.25
2023-02-19T04:12:50.233Z,0.10
2023-02-19T04:15:23.257Z,0.15
2023-02-19T04:18:00.305Z,0.10
2023-02-19T04:20:30.362Z,0.20
2023-02-19T04:22:57.573Z,0.10
2023-02-19T04:25:26.126Z,0.20
2023-02-19T04:27:53.041Z,0.10
2023-02-19T04:30:19.602Z,0.10
2023-02-19T04:32:46.032Z,0.10
2023-02-19T04:35:12.396Z,0.15
2023-02-19T04:37:39.002Z,0.10
2023-02-19T04:40:05.833Z,0.10
2023-02-19T04:42:32.299Z,0.15
2023-02-19T04:44:58.749Z,0.10
2023-02-19T04:47:25.199Z,0.10
2023-02-19T04:49:51.831Z,0.10
2023-02-19T04:52:18.198Z,0.10
2023-02-19T04:54:44.566Z,0.10
2023-02-19T04:57:11.188Z,0.20
2023-02-19T04:59:37.541Z,0.10
2023-02-19T05:02:03.929Z,0.20
2023-02-19T05:04:30.383Z,0.20
2023-02-19T05:06:56.963Z,0.22
2023-02-19T05:09:23.520Z,0.20
2023-02-19T05:11:49.857Z,0.43
2023-02-19T05:14:17.139Z,0.50
2023-02-19T05:16:43.529Z,0.40
2023-02-19T05:19:13.596Z,0.40
2023-02-19T05:21:40.598Z,0.40
2023-02-19T05:24:07.237Z,0.60
2023-02-19T05:26:33.972Z,0.50
2023-02-19T05:29:01.476Z,0.90
2023-02-19T05:31:28.051Z,0.80
2023-02-19T05:33:57.416Z,0.60
2023-02-19T05:36:24.135Z,0.73
2023-02-19T05:38:57.007Z,0.55
2023-02-19T05:41:26.603Z,0.60
2023-02-19T05:43:53.791Z,0.60
2023-02-19T05:46:22.916Z,0.60
2023-02-19T05:48:51.046Z,0.47
2023-02-19T05:51:20.625Z,0.50
2023-02-19T05:53:47.645Z,0.30
2023-02-19T05:56:27.321Z,0.30
2023-02-19T05:58:54.971Z,0.30
2023-02-19T06:01:24.769Z,0.38
2023-02-19T06:03:51.475Z,0.20
2023-02-19T06:06:19.488Z,0.32
2023-02-19T06:08:47.609Z,0.57
2023-02-19T06:11:14.573Z,0.43
2023-02-19T06:13:41.054Z,0.43
2023-02-19T06:16:08.689Z,0.47
2023-02-19T06:18:35.528Z,0.50
2023-02-19T06:21:03.204Z,0.40
2023-02-19T06:23:30.364Z,0.30
2023-02-19T06:26:07.253Z,0.20
2023-02-19T06:28:33.640Z,0.30
2023-02-19T06:31:00.050Z,0.22
2023-02-19T06:33:27.816Z,0.20
2023-02-19T06:35:54.638Z,0.15
2023-02-19T06:38:22.014Z,0.20
2023-02-19T06:40:48.372Z,0.20
2023-02-19T06:43:14.761Z,0.20
2023-02-19T06:45:41.140Z,0.10
2023-02-19T06:48:07.482Z,0.20
2023-02-19T06:50:34.005Z,0.20
2023-02-19T06:53:00.377Z,0.30
2023-02-19T06:55:26.932Z,0.30
2023-02-19T06:57:53.431Z,0.50
2023-02-19T07:00:19.943Z,0.47
2023-02-19T07:02:46.299Z,0.50
2023-02-19T07:05:12.639Z,0.60
2023-02-19T07:07:38.985Z,0.93
2023-02-19T07:10:05.757Z,0.60
2023-02-19T07:12:32.149Z,0.63
2023-02-19T07:14:58.493Z,0.40
2023-02-19T07:17:24.817Z,0.60
2023-02-19T07:19:51.483Z,0.80
2023-02-19T07:22:19.048Z,0.68
2023-02-19T07:24:47.972Z,0.70
2023-02-19T07:27:14.503Z,0.80
2023-02-19T07:29:40.914Z,0.60
2023-02-19T07:32:07.325Z,0.50
2023-02-19T07:34:33.714Z,0.60
2023-02-19T07:37:00.092Z,0.85
2023-02-19T07:39:26.538Z,0.90
2023-02-19T07:41:52.913Z,0.70
2023-02-19T07:44:19.268Z,0.60
2023-02-19T07:46:45.677Z,0.60
2023-02-19T07:49:12.029Z,0.40
2023-02-19T07:51:39.852Z,0.40
2023-02-19T07:54:06.445Z,0.40
2023-02-19T07:56:32.794Z,0.40
2023-02-19T07:59:00.344Z,0.52
2023-02-19T08:01:45.568Z,0.52
2023-02-19T08:04:14.455Z,0.60
2023-02-19T08:06:41.750Z,0.60
2023-02-19T08:09:08.794Z,0.40
2023-02-19T08:11:53.818Z,0.50
2023-02-19T08:14:23.877Z,0.40
2023-02-19T08:16:51.286Z,0.40
2023-02-19T08:19:18.305Z,0.60
2023-02-19T08:21:44.673Z,1.55
2023-02-19T08:24:11.062Z,1.50
2023-02-19T08:26:37.837Z,0.60
2023-02-19T08:29:05.450Z,0.70
2023-02-19T08:31:33.416Z,0.50
2023-02-19T08:33:59.989Z,0.65
2023-02-19T08:36:26.349Z,0.80
2023-02-19T08:38:52.702Z,0.85
2023-02-19T08:41:19.023Z,1.23
2023-02-19T08:43:45.451Z,1.20
2023-02-19T08:46:13.300Z,0.90
2023-02-19T08:48:40.569Z,0.80
2023-02-19T08:51:10.022Z,0.80
2023-02-19T08:53:38.571Z,2.65
2023-02-19T08:56:13.970Z,1.20
2023-02-19T08:58:40.602Z,0.77
2023-02-19T09:01:11.999Z,0.90
2023-02-19T09:03:39.101Z,1.48
2023-02-19T09:06:05.741Z,1.70
2023-02-19T09:08:32.157Z,1.60
2023-02-19T09:11:03.564Z,1.60
2023-02-19T09:13:30.050Z,1.75
2023-02-19T09:15:57.082Z,1.80
2023-02-19T09:18:24.428Z,2.15
2023-02-19T09:20:50.953Z,2.22
2023-02-19T09:23:17.274Z,1.77
2023-02-19T09:25:43.748Z,1.33
2023-02-19T09:28:10.160Z,1.30
2023-02-19T09:30:36.581Z,1.60
2023-02-19T09:33:05.524Z,2.25
2023-02-19T09:35:31.884Z,1.33
2023-02-19T09:38:00.588Z,1.38
2023-02-19T09:40:27.012Z,1.20
2023-02-19T09:42:53.363Z,1.45
2023-02-19T09:45:23.944Z,1.20
2023-02-19T09:47:54.401Z,1.55
2023-02-19T09:50:24.300Z,1.75
2023-02-19T09:52:58.170Z,1.92
2023-02-19T09:55:38.968Z,1.50
2023-02-19T09:58:25.605Z,1.10
2023-02-19T10:00:53.585Z,1.42
2023-02-19T10:03:41.191Z,0.90
2023-02-19T10:06:21.726Z,0.75
2023-02-19T10:08:50.920Z,1.30
2023-02-19T10:11:18.467Z,0.88
2023-02-19T10:14:01.545Z,1.55
2023-02-19T10:16:29.239Z,0.77
2023-02-19T10:18:56.509Z,0.60
2023-02-19T10:21:27.247Z,0.70
2023-02-19T10:23:57.786Z,0.82
2023-02-19T10:26:24.548Z,0.98
2023-02-19T10:28:50.919Z,0.70
2023-02-19T10:31:21.217Z,0.90
2023-02-19T10:34:01.995Z,1.00
2023-02-19T10:36:32.623Z,0.93
2023-02-19T10:39:01.117Z,1.00
2023-02-19T10:41:28.595Z,1.30
2023-02-19T10:44:07.738Z,1.00
2023-02-19T10:46:37.246Z,0.82
2023-02-19T10:49:16.975Z,0.90
2023-02-19T10:51:43.954Z,1.00
2023-02-19T10:54:20.668Z,0.80
2023-02-19T10:56:47.065Z,1.08
2023-02-19T10:59:19.297Z,1.08
2023-02-19T11:02:03.224Z,1.48
2023-02-19T11:04:35.473Z,1.20
2023-02-19T11:07:16.878Z,1.20
2023-02-19T11:09:46.297Z,1.00
2023-02-19T11:12:25.660Z,1.48
2023-02-19T11:14:52.011Z,0.70
2023-02-19T11:17:27.096Z,0.80
2023-02-19T11:20:07.489Z,1.10
2023-02-19T11:22:39.002Z,0.63
2023-02-19T11:25:19.951Z,0.70
2023-02-19T11:28:22.714Z,0.60
2023-02-19T11:30:49.055Z,0.80
2023-02-19T11:33:24.451Z,0.70
2023-02-19T11:35:55.222Z,0.60
2023-02-19T11:38:21.794Z,0.75
2023-02-19T11:40:55.716Z,0.80
2023-02-19T11:43:48.658Z,0.63
2023-02-19T11:46:24.193Z,0.57
2023-02-19T11:49:21.209Z,1.77
2023-02-19T11:52:19.556Z,0.60
2023-02-19T11:55:01.220Z,0.60
2023-02-19T11:57:39.668Z,0.80
2023-02-19T12:00:26.233Z,1.00
2023-02-19T12:03:16.460Z,1.00
2023-02-19T12:05:48.656Z,0.82
2023-02-19T12:08:44.503Z,1.00
2023-02-19T12:11:53.492Z,0.60
2023-02-19T12:14:46.989Z,0.80
2023-02-19T12:17:47.736Z,0.93
2023-02-19T12:23:20.452Z,0.90
2023-02-19T12:25:57.683Z,0.98
2023-02-19T12:28:29.736Z,0.70
2023-02-19T12:31:09.398Z,0.80
2023-02-19T12:33:47.880Z,0.90
2023-02-19T12:36:19.395Z,0.80
2023-02-19T12:39:10.367Z,0.65
2023-02-19T12:44:21.911Z,0.80
2023-02-19T12:46:56.563Z,0.70
2023-02-19T12:49:48.110Z,0.75
2023-02-19T12:52:26.538Z,0.55
2023-02-19T12:54:56.175Z,0.50
2023-02-19T12:57:36.868Z,0.40
2023-02-19T13:00:30.719Z,0.60
2023-02-19T13:03:05.931Z,0.60
2023-02-19T13:05:55.677Z,0.45
2023-02-19T13:08:34.105Z,0.50
2023-02-19T13:11:10.743Z,0.50
2023-02-19T13:13:48.471Z,0.50
2023-02-19T13:16:19.035Z,0.45
2023-02-19T13:18:52.093Z,1.20
2023-02-19T13:21:40.150Z,0.35
2023-02-19T13:24:14.620Z,0.52
2023-02-19T13:27:05.302Z,0.57
2023-02-19T13:29:58.122Z,0.45
2023-02-19T13:32:49.109Z,0.50
2023-02-19T13:35:25.222Z,0.50
2023-02-19T13:37:54.586Z,1.88
2023-02-19T13:40:33.178Z,1.00
2023-02-19T13:43:05.563Z,0.40
2023-02-19T13:45:41.184Z,0.65
2023-02-19T13:48:31.725Z,0.40
2023-02-19T13:51:16.894Z,0.38
2023-02-19T13:53:44.535Z,0.40
2023-02-19T13:56:29.439Z,0.30
2023-02-19T13:59:13.023Z,0.40
2023-02-19T14:01:51.658Z,0.70
2023-02-19T14:04:44.299Z,0.55
2023-02-19T14:07:10.593Z,0.40
2023-02-19T14:09:45.911Z,0.40
2023-02-19T14:12:16.279Z,0.40
2023-02-19T14:14:47.461Z,0.60
2023-02-19T14:17:39.201Z,0.90
2023-02-19T14:20:08.532Z,0.35
2023-02-19T14:22:52.067Z,0.25
2023-02-19T14:25:28.626Z,0.57
2023-02-19T14:28:17.818Z,0.75
2023-02-19T14:30:53.781Z,0.70
2023-02-19T14:33:43.340Z,0.77
2023-02-19T14:36:29.670Z,0.60
2023-02-19T14:39:02.619Z,0.47
2023-02-19T14:41:33.626Z,0.50
2023-02-19T14:44:02.800Z,0.63
2023-02-19T14:46:43.956Z,0.73
2023-02-19T14:49:25.449Z,0.60
2023-02-19T14:51:56.604Z,1.10
2023-02-19T14:54:36.865Z,0.65
2023-02-19T14:57:04.915Z,0.70
2023-02-19T14:59:31.344Z,0.70
2023-02-19T15:02:13.128Z,0.60
2023-02-19T15:04:40.244Z,0.80
2023-02-19T15:07:10.226Z,0.80
2023-02-19T15:09:44.211Z,0.93
2023-02-19T15:12:17.125Z,0.82
2023-02-19T15:14:45.374Z,0.73
2023-02-19T15:17:20.542Z,0.90
2023-02-19T15:19:46.977Z,1.00
2023-02-19T15:22:19.716Z,0.80
2023-02-19T15:24:48.489Z,0.73
2023-02-19T15:27:19.877Z,0.90
2023-02-19T15:29:53.215Z,0.90
2023-02-19T15:32:26.751Z,1.17
2023-02-19T15:34:58.426Z,1.20
2023-02-19T15:37:28.183Z,1.10
2023-02-19T15:42:28.324Z,1.45
2023-02-19T15:45:03.990Z,1.33
2023-02-19T15:47:49.785Z,1.20
2023-02-19T15:50:28.516Z,1.10
2023-02-19T15:53:14.519Z,1.30
2023-02-19T15:55:45.423Z,1.52
2023-02-19T15:58:23.462Z,0.93
2023-02-19T16:00:53.129Z,0.90
2023-02-19T16:03:22.084Z,1.00
2023-02-19T16:06:10.553Z,1.02
2023-02-19T16:08:45.661Z,1.08
2023-02-19T16:11:24.203Z,0.90
2023-02-19T16:13:51.758Z,1.10
2023-02-19T16:16:27.154Z,1.00
2023-02-19T16:18:53.999Z,1.10
2023-02-19T16:21:23.311Z,1.10
2023-02-19T16:23:54.747Z,1.30
2023-02-19T16:26:21.639Z,1.10
2023-02-19T16:28:52.434Z,1.35
2023-02-19T16:31:21.632Z,1.20
2023-02-19T16:33:49.945Z,1.60
2023-02-19T16:36:22.681Z,1.48
2023-02-19T16:38:58.984Z,5.20
2023-02-19T16:41:25.382Z,2.08
2023-02-19T16:43:51.737Z,1.60
2023-02-19T16:46:18.141Z,1.50
2023-02-19T16:48:44.569Z,1.60
2023-02-19T16:51:25.227Z,1.80
2023-02-19T16:53:51.614Z,1.63
2023-02-19T16:56:22.687Z,1.67
2023-02-19T16:58:50.170Z,1.40
2023-02-19T17:01:17.128Z,1.50
2023-02-19T17:03:45.010Z,1.30
2023-02-19T17:06:12.187Z,1.60
2023-02-19T17:08:42.231Z,1.40
2023-02-19T17:11:14.635Z,1.63
2023-02-19T17:13:42.333Z,1.80
2023-02-19T17:16:16.923Z,1.35
2023-02-19T17:18:43.345Z,1.63
2023-02-19T17:21:35.984Z,1.40
2023-02-19T17:24:03.603Z,1.40
2023-02-19T17:26:31.788Z,1.48
2023-02-19T17:28:59.705Z,1.15
2023-02-19T17:31:26.994Z,1.50
2023-02-19T17:33:53.855Z,1.40
2023-02-19T17:36:23.703Z,1.40
2023-02-19T17:41:16.713Z,1.70
2023-02-19T17:43:44.380Z,1.30
2023-02-19T17:46:15.759Z,1.48
2023-02-19T17:48:42.249Z,1.48
2023-02-19T17:51:08.678Z,1.70
2023-02-19T17:53:35.032Z,1.40
2023-02-19T17:56:01.763Z,1.65
2023-02-19T17:58:28.132Z,1.63
2023-02-19T18:00:54.555Z,1.70
2023-02-19T18:03:20.912Z,1.60
2023-02-19T18:05:47.341Z,1.55
2023-02-19T18:08:14.045Z,1.80
2023-02-19T18:10:40.471Z,1.80
2023-02-19T18:13:06.922Z,3.60
2023-02-19T18:15:33.453Z,2.72
2023-02-19T18:17:59.863Z,2.17
2023-02-19T18:20:28.508Z,3.13
2023-02-19T18:22:56.399Z,3.20
2023-02-19T18:25:23.671Z,3.10
2023-02-19T18:27:50.765Z,3.50
2023-02-19T18:30:19.198Z,3.53
2023-02-19T18:32:48.527Z,3.03
2023-02-19T18:35:16.774Z,3.00
2023-02-19T18:37:43.154Z,2.88
2023-02-19T18:40:10.422Z,2.72
2023-02-19T18:42:36.779Z,2.80
2023-02-19T18:45:03.962Z,3.25
2023-02-19T18:47:30.560Z,2.80
2023-02-19T18:49:58.474Z,2.83
2023-02-19T18:52:26.331Z,2.60
2023-02-19T18:54:55.048Z,2.90
2023-02-19T18:57:22.813Z,2.85
2023-02-19T18:59:49.301Z,2.60
2023-02-19T19:02:17.159Z,2.67
2023-02-19T19:04:43.521Z,2.20
2023-02-19T19:07:10.782Z,5.65
2023-02-19T19:09:37.143Z,2.58
2023-02-19T19:12:03.791Z,2.40
2023-02-19T19:14:30.365Z,2.70
2023-02-19T19:16:56.872Z,2.83
2023-02-19T19:19:23.256Z,2.90
2023-02-19T19:21:58.129Z,3.05
2023-02-19T19:24:25.152Z,2.47
2023-02-19T19:26:52.840Z,2.33
2023-02-19T19:29:21.973Z,2.53
2023-02-19T19:31:49.206Z,2.70
2023-02-19T19:34:16.316Z,2.67
2023-02-19T19:36:42.783Z,2.80
2023-02-19T19:39:09.328Z,2.83
2023-02-19T19:41:35.915Z,2.65
2023-02-19T19:44:04.466Z,2.67
2023-02-19T19:46:31.043Z,2.40
2023-02-19T19:48:57.446Z,2.47
2023-02-19T19:51:24.112Z,2.30
2023-02-19T19:53:50.481Z,2.28
2023-02-19T19:56:17.462Z,2.80
2023-02-19T19:58:43.803Z,2.38
2023-02-19T20:01:10.576Z,2.65
2023-02-19T20:03:37.959Z,2.40
2023-02-19T20:06:04.697Z,2.60
2023-02-19T20:08:31.066Z,3.17
2023-02-19T20:10:57.438Z,2.80
2023-02-19T20:13:24.689Z,3.20
2023-02-19T20:15:53.987Z,3.33
2023-02-19T20:18:21.446Z,3.00
2023-02-19T20:20:47.847Z,8.85
2023-02-19T20:23:14.217Z,5.55
2023-02-19T20:25:40.572Z,3.83
2023-02-19T20:28:06.959Z,3.10
2023-02-19T20:30:33.402Z,2.97
2023-02-19T20:32:59.941Z,2.90
2023-02-19T20:35:28.579Z,2.53
2023-02-19T20:37:55.573Z,2.63
2023-02-19T20:40:27.222Z,2.70
2023-02-19T20:42:53.865Z,2.60
2023-02-19T20:45:20.304Z,2.85
2023-02-19T20:47:46.757Z,3.10
2023-02-19T20:50:13.339Z,3.10
2023-02-19T20:52:39.692Z,3.30
2023-02-19T20:55:06.610Z,3.20
2023-02-19T20:57:33.280Z,3.10
2023-02-19T20:59:59.635Z,3.47
2023-02-19T21:02:29.374Z,3.58
2023-02-19T21:07:24.422Z,3.40
2023-02-19T21:09:52.003Z,3.40
2023-02-19T21:12:19.803Z,3.72
2023-02-19T21:14:46.592Z,3.80
2023-02-19T21:17:12.967Z,3.70
2023-02-19T21:19:39.392Z,3.22
2023-02-19T21:22:06.171Z,3.60
2023-02-19T21:24:35.132Z,3.50
2023-02-19T21:27:01.560Z,3.58
2023-02-19T21:29:28.078Z,4.13
2023-02-19T21:31:56.333Z,3.40
2023-02-19T21:34:25.366Z,3.30
2023-02-19T21:36:52.172Z,3.30
2023-02-19T21:39:21.706Z,3.10
2023-02-19T21:41:48.802Z,3.30
2023-02-19T21:44:15.633Z,3.50
2023-02-19T21:46:42.281Z,3.30
2023-02-19T21:49:09.066Z,3.60
2023-02-19T21:51:38.902Z,3.85
2023-02-19T21:56:35.801Z,3.45
2023-02-19T21:59:02.580Z,3.60
2023-02-19T22:01:34.911Z,3.35
2023-02-19T22:04:01.487Z,3.10
2023-02-19T22:06:30.517Z,3.20
2023-02-19T22:08:57.959Z,3.60
2023-02-19T22:11:24.369Z,3.53
2023-02-19T22:13:50.985Z,3.63
2023-02-19T22:16:17.767Z,3.10
2023-02-19T22:18:55.162Z,2.80
2023-02-19T22:21:24.651Z,2.78
2023-02-19T22:23:52.748Z,2.90
2023-02-19T22:26:37.787Z,3.20
2023-02-19T22:29:07.163Z,3.50
2023-02-19T22:31:34.727Z,4.10
2023-02-19T22:34:01.359Z,2.90
2023-02-19T22:36:33.257Z,2.67
2023-02-19T22:39:00.334Z,2.80
2023-02-19T22:41:27.179Z,2.80
2023-02-19T22:43:58.450Z,2.75
2023-02-19T22:46:27.128Z,2.65
2023-02-19T22:48:53.499Z,2.90
2023-02-19T22:51:22.445Z,3.10
2023-02-19T22:53:54.708Z,2.90
2023-02-19T22:56:24.465Z,3.20
2023-02-19T23:01:18.801Z,3.03
2023-02-19T23:03:45.915Z,3.10
2023-02-19T23:06:12.547Z,3.10
2023-02-19T23:08:39.085Z,3.13
2023-02-19T23:11:05.429Z,3.22
2023-02-19T23:13:31.791Z,3.53
2023-02-19T23:15:59.501Z,3.22
2023-02-19T23:18:27.004Z,3.70
2023-02-19T23:20:53.359Z,6.55
2023-02-19T23:23:19.773Z,3.88
2023-02-19T23:25:46.151Z,3.95
2023-02-19T23:28:12.548Z,3.50
2023-02-19T23:30:39.122Z,3.90
2023-02-19T23:33:05.538Z,3.70
2023-02-19T23:35:31.964Z,4.05
2023-02-19T23:37:58.392Z,4.35
2023-02-19T23:40:24.743Z,4.22
2023-02-19T23:42:51.075Z,4.18
2023-02-19T23:45:17.496Z,4.43
2023-02-19T23:47:43.864Z,3.92
2023-02-19T23:50:10.270Z,3.97
2023-02-19T23:52:36.691Z,4.40
2023-02-19T23:55:03.064Z,3.83
2023-02-19T23:57:29.398Z,4.00
2023-02-19T23:59:56.099Z,3.72
